sensor_id;sensor_type;location;lat;lon;timestamp;P1;durP1;ratioP1;P2;durP2;ratioP2
72891;SDS011;61032;50.782;6.818;2023-04-05T00:00:05;6.65;;;3.42;;
72891;SDS011;61032;50.782;6.818;2023-04-05T00:01:11;5.63;;;3.38;;
72891;SDS011;61032;50.782;6.818;2023-04-05T00:02:12;6.72;;;3.25;;
72891;SDS011;61032;50.782;6.818;2023-04-05T00:03:13;5.90;;;3.42;;
72891;SDS011;61032;50.782;6.818;2023-04-05T00:04:13;6.70;;;2.88;;
72891;SDS011;61032;50.782;6.818;2023-04-05T00:05:13;5.57;;;2.92;;
72891;SDS011;61032;50.782;6.818;2023-04-05T00:06:13;6.47;;;3.17;;
72891;SDS011;61032;50.782;6.818;2023-04-05T00:07:15;4.60;;;3.03;;
72891;SDS011;61032;50.782;6.818;2023-04-05T00:08:16;7.65;;;3.47;;
72891;SDS011;61032;50.782;6.818;2023-04-05T00:09:27;6.32;;;3.22;;
72891;SDS011;61032;50.782;6.818;2023-04-05T00:10:28;8.13;;;3.28;;
72891;SDS011;61032;50.782;6.818;2023-04-05T00:11:31;5.07;;;2.92;;
72891;SDS011;61032;50.782;6.818;2023-04-05T00:12:32;5.25;;;3.35;;
72891;SDS011;61032;50.782;6.818;2023-04-05T00:13:32;4.65;;;3.40;;
72891;SDS011;61032;50.782;6.818;2023-04-05T00:14:32;6.15;;;3.00;;
72891;SDS011;61032;50.782;6.818;2023-04-05T00:15:33;6.40;;;3.05;;
72891;SDS011;61032;50.782;6.818;2023-04-05T00:16:34;4.88;;;2.88;;
72891;SDS011;61032;50.782;6.818;2023-04-05T00:17:35;5.13;;;3.42;;
72891;SDS011;61032;50.782;6.818;2023-04-05T00:18:35;6.63;;;3.08;;
72891;SDS011;61032;50.782;6.818;2023-04-05T00:19:37;5.35;;;2.95;;
72891;SDS011;61032;50.782;6.818;2023-04-05T00:20:38;5.07;;;3.00;;
72891;SDS011;61032;50.782;6.818;2023-04-05T00:21:38;5.40;;;2.88;;
72891;SDS011;61032;50.782;6.818;2023-04-05T00:22:40;6.55;;;3.40;;
72891;SDS011;61032;50.782;6.818;2023-04-05T00:23:43;4.60;;;2.80;;
72891;SDS011;61032;50.782;6.818;2023-04-05T00:24:46;5.65;;;3.20;;
72891;SDS011;61032;50.782;6.818;2023-04-05T00:25:46;5.28;;;3.00;;
72891;SDS011;61032;50.782;6.818;2023-04-05T00:26:47;6.47;;;2.92;;
72891;SDS011;61032;50.782;6.818;2023-04-05T00:27:47;4.72;;;2.80;;
72891;SDS011;61032;50.782;6.818;2023-04-05T00:28:47;4.68;;;2.83;;
72891;SDS011;61032;50.782;6.818;2023-04-05T00:29:48;7.45;;;3.47;;
72891;SDS011;61032;50.782;6.818;2023-04-05T00:30:50;5.60;;;3.28;;
72891;SDS011;61032;50.782;6.818;2023-04-05T00:31:51;6.00;;;3.00;;
72891;SDS011;61032;50.782;6.818;2023-04-05T00:32:51;7.88;;;3.90;;
72891;SDS011;61032;50.782;6.818;2023-04-05T00:33:52;4.30;;;2.97;;
72891;SDS011;61032;50.782;6.818;2023-04-05T00:34:52;5.45;;;2.78;;
72891;SDS011;61032;50.782;6.818;2023-04-05T00:35:52;7.97;;;3.03;;
72891;SDS011;61032;50.782;6.818;2023-04-05T00:36:52;8.43;;;3.03;;
72891;SDS011;61032;50.782;6.818;2023-04-05T00:37:53;6.47;;;3.42;;
72891;SDS011;61032;50.782;6.818;2023-04-05T00:38:54;4.95;;;2.85;;
72891;SDS011;61032;50.782;6.818;2023-04-05T00:39:55;6.20;;;3.35;;
72891;SDS011;61032;50.782;6.818;2023-04-05T00:40:56;7.10;;;3.75;;
72891;SDS011;61032;50.782;6.818;2023-04-05T00:41:56;7.53;;;3.78;;
72891;SDS011;61032;50.782;6.818;2023-04-05T00:42:56;5.38;;;3.60;;
72891;SDS011;61032;50.782;6.818;2023-04-05T00:43:57;7.50;;;3.53;;
72891;SDS011;61032;50.782;6.818;2023-04-05T00:44:58;6.75;;;3.95;;
72891;SDS011;61032;50.782;6.818;2023-04-05T00:46:00;5.15;;;3.10;;
72891;SDS011;61032;50.782;6.818;2023-04-05T00:47:01;6.68;;;3.70;;
72891;SDS011;61032;50.782;6.818;2023-04-05T00:48:03;7.32;;;3.97;;
72891;SDS011;61032;50.782;6.818;2023-04-05T00:49:05;6.32;;;3.28;;
72891;SDS011;61032;50.782;6.818;2023-04-05T00:50:05;7.75;;;3.00;;
72891;SDS011;61032;50.782;6.818;2023-04-05T00:51:08;5.10;;;3.15;;
72891;SDS011;61032;50.782;6.818;2023-04-05T00:52:10;6.25;;;3.50;;
72891;SDS011;61032;50.782;6.818;2023-04-05T00:53:12;7.13;;;3.22;;
72891;SDS011;61032;50.782;6.818;2023-04-05T00:54:12;10.85;;;3.40;;
72891;SDS011;61032;50.782;6.818;2023-04-05T00:55:14;7.45;;;4.03;;
72891;SDS011;61032;50.782;6.818;2023-04-05T00:56:15;6.78;;;2.75;;
72891;SDS011;61032;50.782;6.818;2023-04-05T00:57:15;3.45;;;2.55;;
72891;SDS011;61032;50.782;6.818;2023-04-05T00:58:17;6.57;;;2.97;;
72891;SDS011;61032;50.782;6.818;2023-04-05T00:59:21;5.15;;;2.72;;
72891;SDS011;61032;50.782;6.818;2023-04-05T01:00:21;5.22;;;3.22;;
72891;SDS011;61032;50.782;6.818;2023-04-05T01:01:22;5.75;;;3.42;;
72891;SDS011;61032;50.782;6.818;2023-04-05T01:02:30;5.32;;;3.05;;
72891;SDS011;61032;50.782;6.818;2023-04-05T01:03:33;5.30;;;2.78;;
72891;SDS011;61032;50.782;6.818;2023-04-05T01:04:37;4.47;;;3.22;;
72891;SDS011;61032;50.782;6.818;2023-04-05T01:05:45;4.65;;;2.97;;
72891;SDS011;61032;50.782;6.818;2023-04-05T01:09:42;6.22;;;3.20;;
72891;SDS011;61032;50.782;6.818;2023-04-05T01:10:56;5.82;;;2.80;;
72891;SDS011;61032;50.782;6.818;2023-04-05T01:12:03;6.70;;;3.45;;
72891;SDS011;61032;50.782;6.818;2023-04-05T01:13:05;6.55;;;3.60;;
72891;SDS011;61032;50.782;6.818;2023-04-05T01:14:06;7.20;;;3.15;;
72891;SDS011;61032;50.782;6.818;2023-04-05T01:15:06;5.90;;;3.25;;
72891;SDS011;61032;50.782;6.818;2023-04-05T01:16:07;6.95;;;4.40;;
72891;SDS011;61032;50.782;6.818;2023-04-05T01:17:08;8.10;;;4.15;;
72891;SDS011;61032;50.782;6.818;2023-04-05T01:18:09;7.35;;;3.63;;
72891;SDS011;61032;50.782;6.818;2023-04-05T01:19:10;5.65;;;3.55;;
72891;SDS011;61032;50.782;6.818;2023-04-05T01:20:12;6.97;;;4.03;;
72891;SDS011;61032;50.782;6.818;2023-04-05T01:27:21;4.68;;;2.88;;
72891;SDS011;61032;50.782;6.818;2023-04-05T01:30:03;5.47;;;3.05;;
72891;SDS011;61032;50.782;6.818;2023-04-05T01:31:22;6.90;;;3.63;;
72891;SDS011;61032;50.782;6.818;2023-04-05T01:32:41;6.95;;;2.95;;
72891;SDS011;61032;50.782;6.818;2023-04-05T01:35:43;5.13;;;3.25;;
72891;SDS011;61032;50.782;6.818;2023-04-05T01:36:59;6.32;;;3.78;;
72891;SDS011;61032;50.782;6.818;2023-04-05T01:38:02;5.88;;;3.75;;
72891;SDS011;61032;50.782;6.818;2023-04-05T01:39:04;6.80;;;3.17;;
72891;SDS011;61032;50.782;6.818;2023-04-05T01:40:07;5.47;;;3.28;;
72891;SDS011;61032;50.782;6.818;2023-04-05T01:41:08;5.05;;;3.45;;
72891;SDS011;61032;50.782;6.818;2023-04-05T01:42:09;6.57;;;3.63;;
72891;SDS011;61032;50.782;6.818;2023-04-05T01:43:13;7.13;;;3.70;;
72891;SDS011;61032;50.782;6.818;2023-04-05T01:44:14;5.72;;;3.13;;
72891;SDS011;61032;50.782;6.818;2023-04-05T01:45:14;5.63;;;3.17;;
72891;SDS011;61032;50.782;6.818;2023-04-05T01:46:15;7.25;;;3.47;;
72891;SDS011;61032;50.782;6.818;2023-04-05T01:47:15;4.75;;;3.30;;
72891;SDS011;61032;50.782;6.818;2023-04-05T01:48:15;7.45;;;3.72;;
72891;SDS011;61032;50.782;6.818;2023-04-05T01:49:16;8.40;;;4.25;;
72891;SDS011;61032;50.782;6.818;2023-04-05T01:50:16;7.97;;;3.30;;
72891;SDS011;61032;50.782;6.818;2023-04-05T01:51:16;7.78;;;3.97;;
72891;SDS011;61032;50.782;6.818;2023-04-05T01:52:16;5.55;;;3.30;;
72891;SDS011;61032;50.782;6.818;2023-04-05T01:53:17;8.13;;;3.83;;
72891;SDS011;61032;50.782;6.818;2023-04-05T01:54:17;9.27;;;5.68;;
72891;SDS011;61032;50.782;6.818;2023-04-05T01:55:18;7.93;;;4.07;;
72891;SDS011;61032;50.782;6.818;2023-04-05T01:56:18;6.63;;;3.40;;
72891;SDS011;61032;50.782;6.818;2023-04-05T01:57:18;4.78;;;3.47;;
72891;SDS011;61032;50.782;6.818;2023-04-05T01:58:18;7.45;;;3.63;;
72891;SDS011;61032;50.782;6.818;2023-04-05T01:59:19;7.72;;;3.92;;
72891;SDS011;61032;50.782;6.818;2023-04-05T02:00:19;6.85;;;3.35;;
72891;SDS011;61032;50.782;6.818;2023-04-05T02:01:20;6.60;;;3.38;;
72891;SDS011;61032;50.782;6.818;2023-04-05T02:02:20;7.63;;;3.78;;
72891;SDS011;61032;50.782;6.818;2023-04-05T02:03:23;10.38;;;3.88;;
72891;SDS011;61032;50.782;6.818;2023-04-05T02:04:24;4.22;;;3.20;;
72891;SDS011;61032;50.782;6.818;2023-04-05T02:05:24;9.13;;;4.25;;
72891;SDS011;61032;50.782;6.818;2023-04-05T02:06:25;6.82;;;4.85;;
72891;SDS011;61032;50.782;6.818;2023-04-05T02:07:25;5.00;;;3.22;;
72891;SDS011;61032;50.782;6.818;2023-04-05T02:08:26;6.30;;;3.63;;
72891;SDS011;61032;50.782;6.818;2023-04-05T02:09:26;7.32;;;3.90;;
72891;SDS011;61032;50.782;6.818;2023-04-05T02:10:26;6.65;;;3.53;;
72891;SDS011;61032;50.782;6.818;2023-04-05T02:11:27;7.28;;;3.42;;
72891;SDS011;61032;50.782;6.818;2023-04-05T02:12:27;5.95;;;4.20;;
72891;SDS011;61032;50.782;6.818;2023-04-05T02:13:27;7.03;;;4.97;;
72891;SDS011;61032;50.782;6.818;2023-04-05T02:14:27;8.65;;;4.00;;
72891;SDS011;61032;50.782;6.818;2023-04-05T02:15:28;6.03;;;3.40;;
72891;SDS011;61032;50.782;6.818;2023-04-05T02:16:29;6.82;;;3.58;;
72891;SDS011;61032;50.782;6.818;2023-04-05T02:17:32;5.57;;;3.80;;
72891;SDS011;61032;50.782;6.818;2023-04-05T02:18:38;9.48;;;4.15;;
72891;SDS011;61032;50.782;6.818;2023-04-05T02:19:38;6.25;;;3.90;;
72891;SDS011;61032;50.782;6.818;2023-04-05T02:20:46;6.95;;;3.67;;
72891;SDS011;61032;50.782;6.818;2023-04-05T02:21:49;8.75;;;4.05;;
72891;SDS011;61032;50.782;6.818;2023-04-05T02:22:49;5.68;;;2.75;;
72891;SDS011;61032;50.782;6.818;2023-04-05T02:23:51;7.93;;;3.90;;
72891;SDS011;61032;50.782;6.818;2023-04-05T02:24:52;5.65;;;3.10;;
72891;SDS011;61032;50.782;6.818;2023-04-05T02:25:52;7.50;;;2.97;;
72891;SDS011;61032;50.782;6.818;2023-04-05T02:26:52;5.53;;;2.88;;
72891;SDS011;61032;50.782;6.818;2023-04-05T02:27:53;5.95;;;2.47;;
72891;SDS011;61032;50.782;6.818;2023-04-05T02:28:53;5.20;;;3.47;;
72891;SDS011;61032;50.782;6.818;2023-04-05T02:29:53;9.50;;;5.13;;
72891;SDS011;61032;50.782;6.818;2023-04-05T02:30:56;8.77;;;6.55;;
72891;SDS011;61032;50.782;6.818;2023-04-05T02:31:56;7.10;;;4.38;;
72891;SDS011;61032;50.782;6.818;2023-04-05T02:32:57;5.95;;;3.47;;
72891;SDS011;61032;50.782;6.818;2023-04-05T02:33:57;7.20;;;3.25;;
72891;SDS011;61032;50.782;6.818;2023-04-05T02:34:59;6.70;;;3.17;;
72891;SDS011;61032;50.782;6.818;2023-04-05T02:36:02;6.72;;;2.67;;
72891;SDS011;61032;50.782;6.818;2023-04-05T02:37:04;5.45;;;3.67;;
72891;SDS011;61032;50.782;6.818;2023-04-05T02:38:04;5.65;;;3.67;;
72891;SDS011;61032;50.782;6.818;2023-04-05T02:39:05;4.85;;;3.28;;
72891;SDS011;61032;50.782;6.818;2023-04-05T02:40:05;5.28;;;2.75;;
72891;SDS011;61032;50.782;6.818;2023-04-05T02:41:08;6.55;;;3.53;;
72891;SDS011;61032;50.782;6.818;2023-04-05T02:42:10;5.50;;;3.22;;
72891;SDS011;61032;50.782;6.818;2023-04-05T02:43:10;6.35;;;2.85;;
72891;SDS011;61032;50.782;6.818;2023-04-05T02:44:11;5.05;;;2.78;;
72891;SDS011;61032;50.782;6.818;2023-04-05T02:45:12;5.45;;;3.42;;
72891;SDS011;61032;50.782;6.818;2023-04-05T02:46:12;5.20;;;3.17;;
72891;SDS011;61032;50.782;6.818;2023-04-05T02:47:12;5.22;;;3.47;;
72891;SDS011;61032;50.782;6.818;2023-04-05T02:48:16;7.47;;;4.60;;
72891;SDS011;61032;50.782;6.818;2023-04-05T02:49:16;4.55;;;3.03;;
72891;SDS011;61032;50.782;6.818;2023-04-05T02:50:16;6.45;;;3.63;;
72891;SDS011;61032;50.782;6.818;2023-04-05T02:51:19;6.15;;;3.08;;
72891;SDS011;61032;50.782;6.818;2023-04-05T02:52:19;6.75;;;4.03;;
72891;SDS011;61032;50.782;6.818;2023-04-05T02:53:20;8.18;;;3.80;;
72891;SDS011;61032;50.782;6.818;2023-04-05T02:54:21;5.90;;;3.90;;
72891;SDS011;61032;50.782;6.818;2023-04-05T02:55:21;4.80;;;3.45;;
72891;SDS011;61032;50.782;6.818;2023-04-05T02:56:22;4.15;;;2.88;;
72891;SDS011;61032;50.782;6.818;2023-04-05T02:57:22;5.20;;;3.10;;
72891;SDS011;61032;50.782;6.818;2023-04-05T02:58:22;7.07;;;3.05;;
72891;SDS011;61032;50.782;6.818;2023-04-05T02:59:23;6.13;;;3.08;;
72891;SDS011;61032;50.782;6.818;2023-04-05T03:00:24;5.00;;;3.75;;
72891;SDS011;61032;50.782;6.818;2023-04-05T03:01:24;6.43;;;2.97;;
72891;SDS011;61032;50.782;6.818;2023-04-05T03:02:24;4.97;;;3.33;;
72891;SDS011;61032;50.782;6.818;2023-04-05T03:03:26;7.28;;;3.38;;
72891;SDS011;61032;50.782;6.818;2023-04-05T03:04:28;6.55;;;3.53;;
72891;SDS011;61032;50.782;6.818;2023-04-05T03:05:28;5.38;;;3.65;;
72891;SDS011;61032;50.782;6.818;2023-04-05T03:06:29;7.20;;;3.38;;
72891;SDS011;61032;50.782;6.818;2023-04-05T03:07:30;4.53;;;3.15;;
72891;SDS011;61032;50.782;6.818;2023-04-05T03:08:32;6.15;;;3.58;;
72891;SDS011;61032;50.782;6.818;2023-04-05T03:09:32;5.47;;;3.05;;
72891;SDS011;61032;50.782;6.818;2023-04-05T03:10:32;5.25;;;3.33;;
72891;SDS011;61032;50.782;6.818;2023-04-05T03:11:35;6.40;;;3.35;;
72891;SDS011;61032;50.782;6.818;2023-04-05T03:12:35;4.97;;;2.75;;
72891;SDS011;61032;50.782;6.818;2023-04-05T03:13:36;8.45;;;3.00;;
72891;SDS011;61032;50.782;6.818;2023-04-05T03:14:36;9.80;;;3.13;;
72891;SDS011;61032;50.782;6.818;2023-04-05T03:15:37;5.57;;;3.47;;
72891;SDS011;61032;50.782;6.818;2023-04-05T03:16:38;6.13;;;3.28;;
72891;SDS011;61032;50.782;6.818;2023-04-05T03:17:38;5.32;;;2.83;;
72891;SDS011;61032;50.782;6.818;2023-04-05T03:18:38;6.40;;;2.83;;
72891;SDS011;61032;50.782;6.818;2023-04-05T03:19:39;5.68;;;2.97;;
72891;SDS011;61032;50.782;6.818;2023-04-05T03:20:39;6.15;;;3.65;;
72891;SDS011;61032;50.782;6.818;2023-04-05T03:21:40;7.20;;;3.38;;
72891;SDS011;61032;50.782;6.818;2023-04-05T03:22:42;4.95;;;3.22;;
72891;SDS011;61032;50.782;6.818;2023-04-05T03:23:42;6.20;;;3.10;;
72891;SDS011;61032;50.782;6.818;2023-04-05T03:24:45;8.27;;;3.67;;
72891;SDS011;61032;50.782;6.818;2023-04-05T03:25:46;5.57;;;3.10;;
72891;SDS011;61032;50.782;6.818;2023-04-05T03:26:46;5.80;;;3.53;;
72891;SDS011;61032;50.782;6.818;2023-04-05T03:27:47;5.47;;;3.30;;
72891;SDS011;61032;50.782;6.818;2023-04-05T03:28:48;7.10;;;3.58;;
72891;SDS011;61032;50.782;6.818;2023-04-05T03:29:48;7.82;;;4.05;;
72891;SDS011;61032;50.782;6.818;2023-04-05T03:30:48;4.65;;;3.22;;
72891;SDS011;61032;50.782;6.818;2023-04-05T03:31:50;6.00;;;3.10;;
72891;SDS011;61032;50.782;6.818;2023-04-05T03:32:50;7.80;;;3.50;;
72891;SDS011;61032;50.782;6.818;2023-04-05T03:33:51;7.70;;;3.90;;
72891;SDS011;61032;50.782;6.818;2023-04-05T03:34:51;7.35;;;3.63;;
72891;SDS011;61032;50.782;6.818;2023-04-05T03:35:51;5.45;;;3.53;;
72891;SDS011;61032;50.782;6.818;2023-04-05T03:36:52;6.00;;;4.00;;
72891;SDS011;61032;50.782;6.818;2023-04-05T03:37:52;6.00;;;3.13;;
72891;SDS011;61032;50.782;6.818;2023-04-05T03:38:52;5.05;;;3.00;;
72891;SDS011;61032;50.782;6.818;2023-04-05T03:40:55;6.57;;;3.20;;
72891;SDS011;61032;50.782;6.818;2023-04-05T03:41:55;5.00;;;3.03;;
72891;SDS011;61032;50.782;6.818;2023-04-05T03:42:55;4.75;;;3.13;;
72891;SDS011;61032;50.782;6.818;2023-04-05T03:43:56;6.30;;;3.30;;
72891;SDS011;61032;50.782;6.818;2023-04-05T03:44:56;9.02;;;3.83;;
72891;SDS011;61032;50.782;6.818;2023-04-05T03:45:56;8.05;;;4.22;;
72891;SDS011;61032;50.782;6.818;2023-04-05T03:46:57;7.30;;;3.38;;
72891;SDS011;61032;50.782;6.818;2023-04-05T03:47:57;5.75;;;3.35;;
72891;SDS011;61032;50.782;6.818;2023-04-05T03:48:58;5.57;;;3.00;;
72891;SDS011;61032;50.782;6.818;2023-04-05T03:49:59;5.03;;;3.42;;
72891;SDS011;61032;50.782;6.818;2023-04-05T03:51:01;5.47;;;3.47;;
72891;SDS011;61032;50.782;6.818;2023-04-05T03:52:01;8.50;;;3.45;;
72891;SDS011;61032;50.782;6.818;2023-04-05T03:53:02;5.20;;;3.55;;
72891;SDS011;61032;50.782;6.818;2023-04-05T03:54:02;4.70;;;3.10;;
72891;SDS011;61032;50.782;6.818;2023-04-05T03:55:03;7.63;;;3.22;;
72891;SDS011;61032;50.782;6.818;2023-04-05T03:56:03;7.30;;;3.15;;
72891;SDS011;61032;50.782;6.818;2023-04-05T03:57:05;6.20;;;3.55;;
72891;SDS011;61032;50.782;6.818;2023-04-05T03:58:05;7.25;;;3.58;;
72891;SDS011;61032;50.782;6.818;2023-04-05T03:59:06;17.45;;;3.58;;
72891;SDS011;61032;50.782;6.818;2023-04-05T04:00:07;10.43;;;4.38;;
72891;SDS011;61032;50.782;6.818;2023-04-05T04:01:16;6.05;;;3.55;;
72891;SDS011;61032;50.782;6.818;2023-04-05T04:02:17;5.70;;;3.95;;
72891;SDS011;61032;50.782;6.818;2023-04-05T04:03:17;5.55;;;3.47;;
72891;SDS011;61032;50.782;6.818;2023-04-05T04:04:17;7.68;;;3.35;;
72891;SDS011;61032;50.782;6.818;2023-04-05T04:05:18;7.57;;;4.10;;
72891;SDS011;61032;50.782;6.818;2023-04-05T04:06:19;7.78;;;3.60;;
72891;SDS011;61032;50.782;6.818;2023-04-05T04:07:19;8.07;;;3.63;;
72891;SDS011;61032;50.782;6.818;2023-04-05T04:08:20;8.40;;;3.45;;
72891;SDS011;61032;50.782;6.818;2023-04-05T04:09:20;5.20;;;2.95;;
72891;SDS011;61032;50.782;6.818;2023-04-05T04:10:21;6.15;;;3.28;;
72891;SDS011;61032;50.782;6.818;2023-04-05T04:11:22;6.72;;;4.20;;
72891;SDS011;61032;50.782;6.818;2023-04-05T04:12:22;6.38;;;3.33;;
72891;SDS011;61032;50.782;6.818;2023-04-05T04:13:22;6.88;;;4.13;;
72891;SDS011;61032;50.782;6.818;2023-04-05T04:14:23;8.48;;;3.75;;
72891;SDS011;61032;50.782;6.818;2023-04-05T04:15:23;6.13;;;3.70;;
72891;SDS011;61032;50.782;6.818;2023-04-05T04:16:24;24.77;;;14.35;;
72891;SDS011;61032;50.782;6.818;2023-04-05T04:17:25;44.80;;;22.30;;
72891;SDS011;61032;50.782;6.818;2023-04-05T04:18:26;48.85;;;26.17;;
72891;SDS011;61032;50.782;6.818;2023-04-05T04:19:27;40.55;;;21.98;;
72891;SDS011;61032;50.782;6.818;2023-04-05T04:20:27;26.48;;;14.73;;
72891;SDS011;61032;50.782;6.818;2023-04-05T04:21:27;22.80;;;14.10;;
72891;SDS011;61032;50.782;6.818;2023-04-05T04:22:28;18.70;;;11.00;;
72891;SDS011;61032;50.782;6.818;2023-04-05T04:23:37;14.77;;;7.68;;
72891;SDS011;61032;50.782;6.818;2023-04-05T04:24:37;13.90;;;6.97;;
72891;SDS011;61032;50.782;6.818;2023-04-05T04:25:39;12.50;;;6.35;;
72891;SDS011;61032;50.782;6.818;2023-04-05T04:26:45;9.25;;;5.38;;
72891;SDS011;61032;50.782;6.818;2023-04-05T04:27:46;9.43;;;6.03;;
72891;SDS011;61032;50.782;6.818;2023-04-05T04:28:47;7.55;;;4.32;;
72891;SDS011;61032;50.782;6.818;2023-04-05T04:29:47;8.60;;;3.95;;
72891;SDS011;61032;50.782;6.818;2023-04-05T04:30:48;6.43;;;3.60;;
72891;SDS011;61032;50.782;6.818;2023-04-05T04:31:48;5.15;;;3.53;;
72891;SDS011;61032;50.782;6.818;2023-04-05T04:32:49;6.05;;;3.88;;
72891;SDS011;61032;50.782;6.818;2023-04-05T04:33:53;6.07;;;3.15;;
72891;SDS011;61032;50.782;6.818;2023-04-05T04:34:54;6.40;;;3.65;;
72891;SDS011;61032;50.782;6.818;2023-04-05T04:35:54;6.95;;;3.50;;
72891;SDS011;61032;50.782;6.818;2023-04-05T04:36:55;7.60;;;4.13;;
72891;SDS011;61032;50.782;6.818;2023-04-05T04:38:00;5.03;;;3.22;;
72891;SDS011;61032;50.782;6.818;2023-04-05T04:40:06;7.93;;;3.20;;
72891;SDS011;61032;50.782;6.818;2023-04-05T04:41:09;6.22;;;4.18;;
72891;SDS011;61032;50.782;6.818;2023-04-05T04:42:10;7.15;;;3.63;;
72891;SDS011;61032;50.782;6.818;2023-04-05T04:43:11;10.68;;;4.00;;
72891;SDS011;61032;50.782;6.818;2023-04-05T04:44:17;7.93;;;4.00;;
72891;SDS011;61032;50.782;6.818;2023-04-05T04:45:27;6.07;;;3.38;;
72891;SDS011;61032;50.782;6.818;2023-04-05T04:46:33;6.85;;;3.58;;
72891;SDS011;61032;50.782;6.818;2023-04-05T04:47:41;6.65;;;3.90;;
72891;SDS011;61032;50.782;6.818;2023-04-05T04:48:42;6.00;;;3.78;;
72891;SDS011;61032;50.782;6.818;2023-04-05T04:49:42;6.15;;;4.07;;
72891;SDS011;61032;50.782;6.818;2023-04-05T04:50:43;5.75;;;3.72;;
72891;SDS011;61032;50.782;6.818;2023-04-05T04:51:47;7.90;;;3.75;;
72891;SDS011;61032;50.782;6.818;2023-04-05T04:52:47;5.53;;;2.90;;
72891;SDS011;61032;50.782;6.818;2023-04-05T04:53:48;6.38;;;3.83;;
72891;SDS011;61032;50.782;6.818;2023-04-05T04:54:48;7.15;;;3.60;;
72891;SDS011;61032;50.782;6.818;2023-04-05T04:55:49;5.45;;;3.28;;
72891;SDS011;61032;50.782;6.818;2023-04-05T04:56:50;6.25;;;4.25;;
72891;SDS011;61032;50.782;6.818;2023-04-05T04:57:51;7.68;;;3.50;;
72891;SDS011;61032;50.782;6.818;2023-04-05T04:58:53;5.80;;;3.65;;
72891;SDS011;61032;50.782;6.818;2023-04-05T04:59:55;5.65;;;3.63;;
72891;SDS011;61032;50.782;6.818;2023-04-05T05:00:55;6.53;;;3.95;;
72891;SDS011;61032;50.782;6.818;2023-04-05T05:01:58;6.50;;;3.40;;
72891;SDS011;61032;50.782;6.818;2023-04-05T05:02:58;7.00;;;4.20;;
72891;SDS011;61032;50.782;6.818;2023-04-05T05:03:58;6.35;;;3.92;;
72891;SDS011;61032;50.782;6.818;2023-04-05T05:04:58;7.05;;;4.40;;
72891;SDS011;61032;50.782;6.818;2023-04-05T05:05:59;5.65;;;4.22;;
72891;SDS011;61032;50.782;6.818;2023-04-05T05:07:00;7.05;;;4.30;;
72891;SDS011;61032;50.782;6.818;2023-04-05T05:08:01;6.85;;;3.45;;
72891;SDS011;61032;50.782;6.818;2023-04-05T05:09:01;7.45;;;4.10;;
72891;SDS011;61032;50.782;6.818;2023-04-05T05:10:02;8.38;;;4.63;;
72891;SDS011;61032;50.782;6.818;2023-04-05T05:11:05;7.80;;;4.70;;
72891;SDS011;61032;50.782;6.818;2023-04-05T05:12:06;8.15;;;4.97;;
72891;SDS011;61032;50.782;6.818;2023-04-05T05:13:06;8.73;;;5.03;;
72891;SDS011;61032;50.782;6.818;2023-04-05T05:14:07;8.65;;;4.47;;
72891;SDS011;61032;50.782;6.818;2023-04-05T05:15:08;7.22;;;4.72;;
72891;SDS011;61032;50.782;6.818;2023-04-05T05:16:09;7.68;;;4.45;;
72891;SDS011;61032;50.782;6.818;2023-04-05T05:17:10;8.77;;;4.43;;
72891;SDS011;61032;50.782;6.818;2023-04-05T05:18:10;4.85;;;3.60;;
72891;SDS011;61032;50.782;6.818;2023-04-05T05:19:11;5.95;;;3.13;;
72891;SDS011;61032;50.782;6.818;2023-04-05T05:20:11;5.15;;;3.45;;
72891;SDS011;61032;50.782;6.818;2023-04-05T05:21:12;4.80;;;3.25;;
72891;SDS011;61032;50.782;6.818;2023-04-05T05:22:12;7.18;;;3.15;;
72891;SDS011;61032;50.782;6.818;2023-04-05T05:23:12;6.35;;;3.40;;
72891;SDS011;61032;50.782;6.818;2023-04-05T05:24:12;5.15;;;3.28;;
72891;SDS011;61032;50.782;6.818;2023-04-05T05:25:13;6.32;;;3.30;;
72891;SDS011;61032;50.782;6.818;2023-04-05T05:26:13;8.48;;;3.47;;
72891;SDS011;61032;50.782;6.818;2023-04-05T05:27:14;8.38;;;4.13;;
72891;SDS011;61032;50.782;6.818;2023-04-05T05:28:14;7.53;;;3.05;;
72891;SDS011;61032;50.782;6.818;2023-04-05T05:29:15;6.05;;;3.88;;
72891;SDS011;61032;50.782;6.818;2023-04-05T05:30:16;6.97;;;3.58;;
72891;SDS011;61032;50.782;6.818;2023-04-05T05:31:17;5.65;;;3.35;;
72891;SDS011;61032;50.782;6.818;2023-04-05T05:32:18;6.85;;;3.95;;
72891;SDS011;61032;50.782;6.818;2023-04-05T05:33:18;6.40;;;3.72;;
72891;SDS011;61032;50.782;6.818;2023-04-05T05:34:20;5.70;;;3.47;;
72891;SDS011;61032;50.782;6.818;2023-04-05T05:35:20;6.93;;;4.00;;
72891;SDS011;61032;50.782;6.818;2023-04-05T05:36:21;8.02;;;4.00;;
72891;SDS011;61032;50.782;6.818;2023-04-05T05:37:29;6.22;;;4.50;;
72891;SDS011;61032;50.782;6.818;2023-04-05T05:38:30;5.40;;;4.07;;
72891;SDS011;61032;50.782;6.818;2023-04-05T05:39:30;7.47;;;4.28;;
72891;SDS011;61032;50.782;6.818;2023-04-05T05:40:31;7.88;;;4.35;;
72891;SDS011;61032;50.782;6.818;2023-04-05T05:41:31;6.25;;;3.90;;
72891;SDS011;61032;50.782;6.818;2023-04-05T05:42:31;8.02;;;3.85;;
72891;SDS011;61032;50.782;6.818;2023-04-05T05:43:32;5.50;;;3.67;;
72891;SDS011;61032;50.782;6.818;2023-04-05T05:44:33;5.82;;;3.70;;
72891;SDS011;61032;50.782;6.818;2023-04-05T05:45:34;6.18;;;2.95;;
72891;SDS011;61032;50.782;6.818;2023-04-05T05:46:35;6.55;;;3.42;;
72891;SDS011;61032;50.782;6.818;2023-04-05T05:47:35;6.07;;;3.78;;
72891;SDS011;61032;50.782;6.818;2023-04-05T05:48:35;6.72;;;3.67;;
72891;SDS011;61032;50.782;6.818;2023-04-05T05:49:36;6.22;;;3.40;;
72891;SDS011;61032;50.782;6.818;2023-04-05T05:50:36;6.10;;;4.00;;
72891;SDS011;61032;50.782;6.818;2023-04-05T05:51:38;6.00;;;3.60;;
72891;SDS011;61032;50.782;6.818;2023-04-05T05:52:38;5.20;;;3.50;;
72891;SDS011;61032;50.782;6.818;2023-04-05T05:53:38;5.25;;;3.60;;
72891;SDS011;61032;50.782;6.818;2023-04-05T05:54:39;5.93;;;3.75;;
72891;SDS011;61032;50.782;6.818;2023-04-05T05:55:39;6.55;;;3.72;;
72891;SDS011;61032;50.782;6.818;2023-04-05T05:56:40;6.30;;;4.53;;
72891;SDS011;61032;50.782;6.818;2023-04-05T05:57:41;8.10;;;4.15;;
72891;SDS011;61032;50.782;6.818;2023-04-05T05:58:41;5.80;;;3.70;;
72891;SDS011;61032;50.782;6.818;2023-04-05T05:59:41;7.85;;;4.20;;
72891;SDS011;61032;50.782;6.818;2023-04-05T06:00:42;4.70;;;3.22;;
72891;SDS011;61032;50.782;6.818;2023-04-05T06:01:43;6.10;;;3.42;;
72891;SDS011;61032;50.782;6.818;2023-04-05T06:02:45;5.78;;;3.53;;
72891;SDS011;61032;50.782;6.818;2023-04-05T06:03:45;8.23;;;3.85;;
72891;SDS011;61032;50.782;6.818;2023-04-05T06:04:46;9.55;;;3.75;;
72891;SDS011;61032;50.782;6.818;2023-04-05T06:05:56;7.97;;;3.47;;
72891;SDS011;61032;50.782;6.818;2023-04-05T06:06:58;6.82;;;3.38;;
72891;SDS011;61032;50.782;6.818;2023-04-05T06:08:00;4.85;;;3.42;;
72891;SDS011;61032;50.782;6.818;2023-04-05T06:10:05;5.38;;;3.97;;
72891;SDS011;61032;50.782;6.818;2023-04-05T06:11:15;6.68;;;3.25;;
72891;SDS011;61032;50.782;6.818;2023-04-05T06:12:16;6.85;;;4.18;;
72891;SDS011;61032;50.782;6.818;2023-04-05T06:13:16;7.80;;;3.88;;
72891;SDS011;61032;50.782;6.818;2023-04-05T06:14:16;17.05;;;5.40;;
72891;SDS011;61032;50.782;6.818;2023-04-05T06:15:17;10.32;;;5.50;;
72891;SDS011;61032;50.782;6.818;2023-04-05T06:16:17;10.43;;;5.22;;
72891;SDS011;61032;50.782;6.818;2023-04-05T06:17:17;7.57;;;4.78;;
72891;SDS011;61032;50.782;6.818;2023-04-05T06:18:18;9.20;;;4.93;;
72891;SDS011;61032;50.782;6.818;2023-04-05T06:19:19;8.88;;;5.15;;
72891;SDS011;61032;50.782;6.818;2023-04-05T06:20:19;9.13;;;4.95;;
72891;SDS011;61032;50.782;6.818;2023-04-05T06:21:20;14.07;;;6.03;;
72891;SDS011;61032;50.782;6.818;2023-04-05T06:22:20;8.95;;;5.22;;
72891;SDS011;61032;50.782;6.818;2023-04-05T06:23:22;10.73;;;5.40;;
72891;SDS011;61032;50.782;6.818;2023-04-05T06:24:22;8.50;;;5.53;;